N412AT KORF-KFFA
Flight info
| Callsign | N412AT |
|---|---|
| Flight time | 0h 21m |
| Altitude | 7000 |
| Route | YELUS |
| Aircraft | B412/L-SDFGRY/C |
Departure
| Time | 2026-05-08 00:24 |
|---|---|
| Airport | Norfolk International Airport (KORF) |
Arrival
| Time | 2026-05-08 00:46 |
|---|---|
| Airport | First Flight Airport (KFFA) |
| Time | Latitude | Longitude | Altitude | Speed | Heading |
|---|---|---|---|---|---|
| 2026-05-08 00:21 | 36.88709 | -76.20073 | 23 ft | 0 kts | 128° |
| 2026-05-08 00:23 | 36.88708 | -76.20073 | 23 ft | 0 kts | 128° |
| 2026-05-08 00:23 | 36.88706 | -76.20069 | 27 ft | 5 kts | 102° |
| 2026-05-08 00:23 | 36.88641 | -76.20042 | 108 ft | 32 kts | 167° |
| 2026-05-08 00:24 | 36.88182 | -76.19840 | 252 ft | 97 kts | 150° |
| 2026-05-08 00:24 | 36.87491 | -76.19475 | 388 ft | 116 kts | 156° |
| 2026-05-08 00:24 | 36.86750 | -76.19080 | 615 ft | 111 kts | 159° |
| 2026-05-08 00:24 | 36.86092 | -76.18560 | 708 ft | 112 kts | 135° |
| 2026-05-08 00:25 | 36.85492 | -76.17925 | 756 ft | 115 kts | 145° |
| 2026-05-08 00:25 | 36.84754 | -76.17488 | 926 ft | 123 kts | 155° |
| 2026-05-08 00:25 | 36.83938 | -76.17070 | 1124 ft | 127 kts | 154° |
| 2026-05-08 00:25 | 36.83122 | -76.16617 | 1324 ft | 129 kts | 152° |
| 2026-05-08 00:26 | 36.82296 | -76.16152 | 1522 ft | 131 kts | 153° |
| 2026-05-08 00:26 | 36.81468 | -76.15688 | 1722 ft | 132 kts | 152° |
| 2026-05-08 00:26 | 36.80622 | -76.15218 | 1924 ft | 133 kts | 152° |
| 2026-05-08 00:26 | 36.79778 | -76.14741 | 2123 ft | 134 kts | 152° |
| 2026-05-08 00:27 | 36.78917 | -76.14252 | 2325 ft | 135 kts | 153° |
| 2026-05-08 00:27 | 36.78065 | -76.13765 | 2523 ft | 136 kts | 153° |
| 2026-05-08 00:27 | 36.77199 | -76.13274 | 2723 ft | 137 kts | 154° |
| 2026-05-08 00:27 | 36.76323 | -76.12782 | 2921 ft | 139 kts | 154° |
| 2026-05-08 00:28 | 36.75441 | -76.12285 | 3122 ft | 140 kts | 154° |
| 2026-05-08 00:28 | 36.74548 | -76.11779 | 3324 ft | 140 kts | 155° |
| 2026-05-08 00:28 | 36.73667 | -76.11277 | 3526 ft | 140 kts | 155° |
| 2026-05-08 00:28 | 36.72776 | -76.10772 | 3726 ft | 141 kts | 156° |
| 2026-05-08 00:29 | 36.71877 | -76.10263 | 3925 ft | 141 kts | 156° |
| 2026-05-08 00:29 | 36.70988 | -76.09755 | 4012 ft | 139 kts | 156° |
| 2026-05-08 00:29 | 36.64052 | -76.05900 | 2694 ft | 144 kts | 154° |
| 2026-05-08 00:29 | 36.62434 | -76.05022 | 2362 ft | 142 kts | 152° |
| 2026-05-08 00:30 | 36.61520 | -76.04498 | 2157 ft | 142 kts | 152° |
| 2026-05-08 00:30 | 36.60617 | -76.04001 | 1955 ft | 142 kts | 152° |
| 2026-05-08 00:30 | 36.59987 | -76.03655 | 1814 ft | 142 kts | 152° |
| 2026-05-08 00:31 | 36.59412 | -76.03339 | 1696 ft | 142 kts | 152° |
| 2026-05-08 00:31 | 36.58500 | -76.02836 | 1609 ft | 141 kts | 152° |
| 2026-05-08 00:31 | 36.55425 | -76.01116 | 1440 ft | 141 kts | 152° |
| 2026-05-08 00:31 | 36.53493 | -76.00050 | 1470 ft | 141 kts | 151° |
| 2026-05-08 00:32 | 36.52592 | -75.99549 | 1505 ft | 139 kts | 149° |
| 2026-05-08 00:32 | 36.51710 | -75.99063 | 1505 ft | 141 kts | 154° |
| 2026-05-08 00:32 | 36.50808 | -75.98557 | 1506 ft | 141 kts | 151° |
| 2026-05-08 00:32 | 36.49892 | -75.98051 | 1517 ft | 143 kts | 153° |
| 2026-05-08 00:33 | 36.48990 | -75.97546 | 1518 ft | 139 kts | 151° |
| 2026-05-08 00:33 | 36.48196 | -75.97112 | 1512 ft | 140 kts | 153° |
| 2026-05-08 00:33 | 36.48193 | -75.97110 | 1511 ft | 140 kts | 153° |
| 2026-05-08 00:33 | 36.47858 | -75.96926 | 1509 ft | 138 kts | 152° |
| 2026-05-08 00:34 | 36.46975 | -75.96423 | 1502 ft | 140 kts | 151° |
| 2026-05-08 00:34 | 36.46091 | -75.95932 | 1485 ft | 140 kts | 151° |
| 2026-05-08 00:34 | 36.45193 | -75.95438 | 1425 ft | 140 kts | 152° |
| 2026-05-08 00:34 | 36.44311 | -75.94945 | 1311 ft | 140 kts | 151° |
| 2026-05-08 00:35 | 36.43416 | -75.94441 | 1187 ft | 140 kts | 151° |
| 2026-05-08 00:35 | 36.42523 | -75.93948 | 1063 ft | 139 kts | 151° |
| 2026-05-08 00:35 | 36.41637 | -75.93456 | 940 ft | 139 kts | 151° |
| 2026-05-08 00:35 | 36.40761 | -75.92972 | 818 ft | 138 kts | 151° |
| 2026-05-08 00:36 | 36.39891 | -75.92484 | 696 ft | 137 kts | 152° |
| 2026-05-08 00:36 | 36.39011 | -75.91995 | 642 ft | 137 kts | 152° |
| 2026-05-08 00:36 | 36.38134 | -75.91512 | 634 ft | 137 kts | 152° |
| 2026-05-08 00:36 | 36.37263 | -75.91030 | 633 ft | 137 kts | 152° |
| 2026-05-08 00:37 | 36.36402 | -75.90551 | 633 ft | 136 kts | 152° |
| 2026-05-08 00:37 | 36.35525 | -75.90062 | 630 ft | 136 kts | 152° |
| 2026-05-08 00:37 | 36.34647 | -75.89578 | 627 ft | 136 kts | 153° |
| 2026-05-08 00:38 | 36.32034 | -75.88129 | 641 ft | 134 kts | 151° |
| 2026-05-08 00:38 | 36.28454 | -75.86166 | 640 ft | 134 kts | 150° |
| 2026-05-08 00:38 | 36.27599 | -75.85677 | 636 ft | 137 kts | 152° |
| 2026-05-08 00:38 | 36.26729 | -75.85201 | 645 ft | 135 kts | 151° |
| 2026-05-08 00:39 | 36.25863 | -75.84727 | 643 ft | 136 kts | 151° |
| 2026-05-08 00:39 | 36.24993 | -75.84245 | 646 ft | 138 kts | 151° |
| 2026-05-08 00:39 | 36.23798 | -75.83593 | 675 ft | 140 kts | 151° |
| 2026-05-08 00:39 | 36.20075 | -75.81538 | 724 ft | 138 kts | 147° |
| 2026-05-08 00:40 | 36.19248 | -75.80925 | 720 ft | 138 kts | 142° |
| 2026-05-08 00:40 | 36.18422 | -75.80277 | 720 ft | 139 kts | 141° |
| 2026-05-08 00:40 | 36.17606 | -75.79630 | 717 ft | 139 kts | 141° |
| 2026-05-08 00:40 | 36.16784 | -75.78996 | 676 ft | 140 kts | 140° |
| 2026-05-08 00:41 | 36.15973 | -75.78365 | 609 ft | 139 kts | 142° |
| 2026-05-08 00:41 | 36.15146 | -75.77701 | 551 ft | 142 kts | 142° |
| 2026-05-08 00:41 | 36.14327 | -75.77054 | 520 ft | 138 kts | 142° |
| 2026-05-08 00:41 | 36.13502 | -75.76411 | 498 ft | 143 kts | 142° |
| 2026-05-08 00:42 | 36.12666 | -75.75764 | 505 ft | 140 kts | 145° |
| 2026-05-08 00:42 | 36.11825 | -75.75095 | 498 ft | 143 kts | 143° |
| 2026-05-08 00:42 | 36.11001 | -75.74449 | 502 ft | 140 kts | 144° |
| 2026-05-08 00:42 | 36.10174 | -75.73814 | 508 ft | 133 kts | 143° |
| 2026-05-08 00:43 | 36.09370 | -75.73193 | 494 ft | 140 kts | 140° |
| 2026-05-08 00:43 | 36.08561 | -75.72562 | 494 ft | 140 kts | 141° |
| 2026-05-08 00:43 | 36.07719 | -75.71884 | 510 ft | 140 kts | 140° |
| 2026-05-08 00:43 | 36.06919 | -75.71261 | 493 ft | 138 kts | 139° |
| 2026-05-08 00:44 | 36.06101 | -75.70647 | 543 ft | 135 kts | 146° |
| 2026-05-08 00:44 | 36.05284 | -75.70084 | 624 ft | 140 kts | 151° |
| 2026-05-08 00:44 | 36.04353 | -75.69531 | 625 ft | 152 kts | 153° |
| 2026-05-08 00:44 | 36.03387 | -75.69035 | 590 ft | 141 kts | 150° |
| 2026-05-08 00:45 | 36.02543 | -75.68508 | 547 ft | 133 kts | 144° |
| 2026-05-08 00:45 | 36.01723 | -75.67946 | 494 ft | 136 kts | 161° |
| 2026-05-08 00:45 | 36.00817 | -75.68093 | 476 ft | 125 kts | 192° |
| 2026-05-08 00:45 | 36.00194 | -75.67864 | 510 ft | 86 kts | 95° |
| 2026-05-08 00:46 | 36.00549 | -75.67461 | 384 ft | 81 kts | 4° |
| 2026-05-08 00:46 | 36.01078 | -75.67432 | 218 ft | 70 kts | 15° |
| 2026-05-08 00:46 | 36.01478 | -75.67311 | 156 ft | 41 kts | 35° |
| 2026-05-08 00:46 | 36.01623 | -75.67237 | 145 ft | 7 kts | 164° |
| 2026-05-08 00:47 | 36.01525 | -75.67234 | 33 ft | 12 kts | 214° |
| 2026-05-08 00:47 | 36.01446 | -75.67234 | 27 ft | 15 kts | 160° |
| 2026-05-08 00:47 | 36.01397 | -75.67182 | 33 ft | 10 kts | 41° |
| 2026-05-08 00:47 | 36.01404 | -75.67174 | 24 ft | 2 kts | 21° |
| 2026-05-08 00:48 | 36.01409 | -75.67178 | 13 ft | 0 kts | 20° |
| 2026-05-08 00:49 | 36.01411 | -75.67179 | 13 ft | 0 kts | 15° |
| 2026-05-08 00:49 | 36.01411 | -75.67181 | 12 ft | 0 kts | 19° |